sensor_id;sensor_type;location;lat;lon;timestamp;temperature;humidity
40077;DHT22;25777;47.824;18.982;2023-02-28T00:00:19;-2.30;99.90
40077;DHT22;25777;47.824;18.982;2023-02-28T00:02:45;-2.30;99.90
40077;DHT22;25777;47.824;18.982;2023-02-28T00:05:25;-2.30;99.90
40077;DHT22;25777;47.824;18.982;2023-02-28T00:07:58;-2.30;99.90
40077;DHT22;25777;47.824;18.982;2023-02-28T00:10:27;-2.40;99.90
40077;DHT22;25777;47.824;18.982;2023-02-28T00:13:03;-2.40;99.90
40077;DHT22;25777;47.824;18.982;2023-02-28T00:15:33;-2.50;99.90
40077;DHT22;25777;47.824;18.982;2023-02-28T00:18:02;-2.30;99.90
40077;DHT22;25777;47.824;18.982;2023-02-28T00:20:35;-2.20;99.90
40077;DHT22;25777;47.824;18.982;2023-02-28T00:23:08;-2.20;99.90
40077;DHT22;25777;47.824;18.982;2023-02-28T00:25:36;-2.10;99.90
40077;DHT22;25777;47.824;18.982;2023-02-28T00:28:03;-2.10;99.90
40077;DHT22;25777;47.824;18.982;2023-02-28T00:30:36;-2.20;99.90
40077;DHT22;25777;47.824;18.982;2023-02-28T00:33:06;-2.30;99.90
40077;DHT22;25777;47.824;18.982;2023-02-28T00:35:32;-2.30;99.90
40077;DHT22;25777;47.824;18.982;2023-02-28T00:38:08;-2.30;99.90
40077;DHT22;25777;47.824;18.982;2023-02-28T00:40:38;-2.20;99.90
40077;DHT22;25777;47.824;18.982;2023-02-28T00:43:04;-2.30;99.90
40077;DHT22;25777;47.824;18.982;2023-02-28T00:45:30;-2.30;99.90
40077;DHT22;25777;47.824;18.982;2023-02-28T00:48:01;-2.20;99.90
40077;DHT22;25777;47.824;18.982;2023-02-28T00:50:35;-2.20;99.90
40077;DHT22;25777;47.824;18.982;2023-02-28T00:53:10;-2.20;99.90
40077;DHT22;25777;47.824;18.982;2023-02-28T00:55:39;-2.20;99.90
40077;DHT22;25777;47.824;18.982;2023-02-28T00:58:05;-2.20;99.90
40077;DHT22;25777;47.824;18.982;2023-02-28T01:00:40;-2.30;99.90
40077;DHT22;25777;47.824;18.982;2023-02-28T01:03:07;-2.30;99.90
40077;DHT22;25777;47.824;18.982;2023-02-28T01:05:35;-2.30;99.90
40077;DHT22;25777;47.824;18.982;2023-02-28T01:08:01;-2.30;99.90
40077;DHT22;25777;47.824;18.982;2023-02-28T01:10:38;-2.40;99.90
40077;DHT22;25777;47.824;18.982;2023-02-28T01:13:05;-2.40;99.90
40077;DHT22;25777;47.824;18.982;2023-02-28T01:15:38;-2.40;99.90
40077;DHT22;25777;47.824;18.982;2023-02-28T01:18:12;-2.40;99.90
40077;DHT22;25777;47.824;18.982;2023-02-28T01:20:40;-2.40;99.90
40077;DHT22;25777;47.824;18.982;2023-02-28T01:23:21;-2.40;99.90
40077;DHT22;25777;47.824;18.982;2023-02-28T01:25:52;-2.50;99.90
40077;DHT22;25777;47.824;18.982;2023-02-28T01:28:35;-2.40;99.90
40077;DHT22;25777;47.824;18.982;2023-02-28T01:31:06;-2.40;99.90
40077;DHT22;25777;47.824;18.982;2023-02-28T01:33:52;-2.40;99.90
40077;DHT22;25777;47.824;18.982;2023-02-28T01:36:25;-2.40;99.90
40077;DHT22;25777;47.824;18.982;2023-02-28T01:41:27;-2.40;99.90
40077;DHT22;25777;47.824;18.982;2023-02-28T01:43:55;-2.30;99.90
40077;DHT22;25777;47.824;18.982;2023-02-28T01:46:28;-2.30;99.90
40077;DHT22;25777;47.824;18.982;2023-02-28T01:49:04;-2.20;99.90
40077;DHT22;25777;47.824;18.982;2023-02-28T01:54:49;-2.20;99.90
40077;DHT22;25777;47.824;18.982;2023-02-28T01:57:31;-2.00;99.90
40077;DHT22;25777;47.824;18.982;2023-02-28T02:00:13;-2.10;99.90
40077;DHT22;25777;47.824;18.982;2023-02-28T02:02:58;-2.00;99.90
40077;DHT22;25777;47.824;18.982;2023-02-28T02:05:28;-1.90;99.90
40077;DHT22;25777;47.824;18.982;2023-02-28T02:08:14;-1.90;99.90
40077;DHT22;25777;47.824;18.982;2023-02-28T02:10:54;-1.80;99.90
40077;DHT22;25777;47.824;18.982;2023-02-28T02:36:33;-1.70;99.90
40077;DHT22;25777;47.824;18.982;2023-02-28T02:45:40;-1.60;99.90
40077;DHT22;25777;47.824;18.982;2023-02-28T02:48:25;-1.50;99.90
40077;DHT22;25777;47.824;18.982;2023-02-28T02:50:56;-1.50;99.90
40077;DHT22;25777;47.824;18.982;2023-02-28T02:53:35;-1.50;99.90
40077;DHT22;25777;47.824;18.982;2023-02-28T02:56:06;-1.40;99.90
40077;DHT22;25777;47.824;18.982;2023-02-28T02:58:47;-1.40;99.90
40077;DHT22;25777;47.824;18.982;2023-02-28T03:01:19;-1.30;99.90
40077;DHT22;25777;47.824;18.982;2023-02-28T03:04:11;-1.30;99.90
40077;DHT22;25777;47.824;18.982;2023-02-28T03:06:57;-1.30;99.90
40077;DHT22;25777;47.824;18.982;2023-02-28T03:09:26;-1.30;99.90
40077;DHT22;25777;47.824;18.982;2023-02-28T03:11:55;-1.20;99.90
40077;DHT22;25777;47.824;18.982;2023-02-28T03:14:43;-1.10;99.90
40077;DHT22;25777;47.824;18.982;2023-02-28T03:17:37;-1.10;99.90
40077;DHT22;25777;47.824;18.982;2023-02-28T03:26:11;-0.90;99.90
40077;DHT22;25777;47.824;18.982;2023-02-28T03:29:04;-0.90;99.90
40077;DHT22;25777;47.824;18.982;2023-02-28T03:31:41;-0.90;99.90
40077;DHT22;25777;47.824;18.982;2023-02-28T03:37:13;-0.70;99.90
40077;DHT22;25777;47.824;18.982;2023-02-28T03:39:45;-0.60;99.90
40077;DHT22;25777;47.824;18.982;2023-02-28T03:42:23;-0.60;99.90
40077;DHT22;25777;47.824;18.982;2023-02-28T03:45:08;-0.60;99.90
40077;DHT22;25777;47.824;18.982;2023-02-28T03:47:54;-0.60;99.90
40077;DHT22;25777;47.824;18.982;2023-02-28T03:50:41;-0.40;99.90
40077;DHT22;25777;47.824;18.982;2023-02-28T03:55:56;-0.40;99.90
40077;DHT22;25777;47.824;18.982;2023-02-28T04:01:30;-0.30;99.90
40077;DHT22;25777;47.824;18.982;2023-02-28T04:04:04;-0.20;98.90
40077;DHT22;25777;47.824;18.982;2023-02-28T04:06:33;-0.20;99.10
40077;DHT22;25777;47.824;18.982;2023-02-28T04:09:11;-0.20;98.20
40077;DHT22;25777;47.824;18.982;2023-02-28T04:14:29;0.00;97.10
40077;DHT22;25777;47.824;18.982;2023-02-28T04:16:56;0.00;97.70
40077;DHT22;25777;47.824;18.982;2023-02-28T04:19:23;0.00;97.20
40077;DHT22;25777;47.824;18.982;2023-02-28T04:21:55;0.00;96.30
40077;DHT22;25777;47.824;18.982;2023-02-28T04:24:26;0.00;96.00
40077;DHT22;25777;47.824;18.982;2023-02-28T04:26:57;0.00;97.40
40077;DHT22;25777;47.824;18.982;2023-02-28T04:29:30;0.00;97.20
40077;DHT22;25777;47.824;18.982;2023-02-28T04:32:04;0.00;96.60
40077;DHT22;25777;47.824;18.982;2023-02-28T04:34:34;0.00;96.90
40077;DHT22;25777;47.824;18.982;2023-02-28T04:37:10;0.00;96.20
40077;DHT22;25777;47.824;18.982;2023-02-28T04:39:39;0.10;96.20
40077;DHT22;25777;47.824;18.982;2023-02-28T04:42:13;0.10;95.90
40077;DHT22;25777;47.824;18.982;2023-02-28T04:44:39;0.10;97.10
40077;DHT22;25777;47.824;18.982;2023-02-28T04:47:09;0.10;96.90
40077;DHT22;25777;47.824;18.982;2023-02-28T04:49:39;0.10;97.80
40077;DHT22;25777;47.824;18.982;2023-02-28T04:52:13;0.10;95.70
40077;DHT22;25777;47.824;18.982;2023-02-28T04:54:47;0.10;94.60
40077;DHT22;25777;47.824;18.982;2023-02-28T04:57:15;0.20;95.60
40077;DHT22;25777;47.824;18.982;2023-02-28T04:59:41;0.20;96.20
40077;DHT22;25777;47.824;18.982;2023-02-28T05:02:08;0.20;96.60
40077;DHT22;25777;47.824;18.982;2023-02-28T05:04:41;0.20;96.50
40077;DHT22;25777;47.824;18.982;2023-02-28T05:07:38;0.20;95.20
40077;DHT22;25777;47.824;18.982;2023-02-28T05:10:18;0.30;93.30
40077;DHT22;25777;47.824;18.982;2023-02-28T05:12:48;0.40;93.50
40077;DHT22;25777;47.824;18.982;2023-02-28T05:15:16;0.30;93.10
40077;DHT22;25777;47.824;18.982;2023-02-28T05:17:44;0.30;93.90
40077;DHT22;25777;47.824;18.982;2023-02-28T05:20:12;0.40;92.50
40077;DHT22;25777;47.824;18.982;2023-02-28T05:22:40;0.40;92.60
40077;DHT22;25777;47.824;18.982;2023-02-28T05:25:21;0.40;92.70
40077;DHT22;25777;47.824;18.982;2023-02-28T05:27:50;0.40;94.00
40077;DHT22;25777;47.824;18.982;2023-02-28T05:30:17;0.30;94.50
40077;DHT22;25777;47.824;18.982;2023-02-28T05:32:43;0.40;93.20
40077;DHT22;25777;47.824;18.982;2023-02-28T05:35:13;0.40;92.60
40077;DHT22;25777;47.824;18.982;2023-02-28T05:37:39;0.40;94.30
40077;DHT22;25777;47.824;18.982;2023-02-28T05:40:08;0.40;94.90
40077;DHT22;25777;47.824;18.982;2023-02-28T05:42:43;0.30;95.40
40077;DHT22;25777;47.824;18.982;2023-02-28T05:45:21;0.40;96.30
40077;DHT22;25777;47.824;18.982;2023-02-28T05:47:49;0.40;95.40
40077;DHT22;25777;47.824;18.982;2023-02-28T05:50:38;0.30;95.80
40077;DHT22;25777;47.824;18.982;2023-02-28T05:53:15;0.30;96.20
40077;DHT22;25777;47.824;18.982;2023-02-28T05:55:42;0.30;94.80
40077;DHT22;25777;47.824;18.982;2023-02-28T05:58:09;0.40;96.20
40077;DHT22;25777;47.824;18.982;2023-02-28T06:00:38;0.30;95.90
40077;DHT22;25777;47.824;18.982;2023-02-28T06:03:08;0.30;97.10
40077;DHT22;25777;47.824;18.982;2023-02-28T06:05:35;0.30;96.50
40077;DHT22;25777;47.824;18.982;2023-02-28T06:08:03;0.30;95.90
40077;DHT22;25777;47.824;18.982;2023-02-28T06:10:29;0.30;97.40
40077;DHT22;25777;47.824;18.982;2023-02-28T06:13:04;0.40;97.60
40077;DHT22;25777;47.824;18.982;2023-02-28T06:15:32;0.40;96.40
40077;DHT22;25777;47.824;18.982;2023-02-28T06:18:06;0.40;95.40
40077;DHT22;25777;47.824;18.982;2023-02-28T06:20:33;0.50;94.60
40077;DHT22;25777;47.824;18.982;2023-02-28T06:23:02;0.60;97.10
40077;DHT22;25777;47.824;18.982;2023-02-28T06:25:36;0.60;97.90
40077;DHT22;25777;47.824;18.982;2023-02-28T06:28:02;0.60;94.90
40077;DHT22;25777;47.824;18.982;2023-02-28T06:30:28;0.60;94.40
40077;DHT22;25777;47.824;18.982;2023-02-28T06:32:58;0.60;96.20
40077;DHT22;25777;47.824;18.982;2023-02-28T06:35:24;0.70;95.60
40077;DHT22;25777;47.824;18.982;2023-02-28T06:37:53;0.80;95.60
40077;DHT22;25777;47.824;18.982;2023-02-28T06:40:29;0.90;93.90
40077;DHT22;25777;47.824;18.982;2023-02-28T06:42:59;0.90;92.50
40077;DHT22;25777;47.824;18.982;2023-02-28T06:45:26;1.00;91.50
40077;DHT22;25777;47.824;18.982;2023-02-28T06:47:54;1.00;91.30
40077;DHT22;25777;47.824;18.982;2023-02-28T06:50:25;1.00;93.10
40077;DHT22;25777;47.824;18.982;2023-02-28T06:53:00;1.10;90.60
40077;DHT22;25777;47.824;18.982;2023-02-28T06:55:37;1.20;92.50
40077;DHT22;25777;47.824;18.982;2023-02-28T06:58:08;1.10;89.10
40077;DHT22;25777;47.824;18.982;2023-02-28T07:00:43;1.20;90.80
40077;DHT22;25777;47.824;18.982;2023-02-28T07:03:11;1.20;90.60
40077;DHT22;25777;47.824;18.982;2023-02-28T07:05:39;1.30;90.90
40077;DHT22;25777;47.824;18.982;2023-02-28T07:08:08;1.30;90.20
40077;DHT22;25777;47.824;18.982;2023-02-28T07:10:37;1.40;90.30
40077;DHT22;25777;47.824;18.982;2023-02-28T07:13:04;1.40;90.40
40077;DHT22;25777;47.824;18.982;2023-02-28T07:15:31;1.50;90.30
40077;DHT22;25777;47.824;18.982;2023-02-28T07:17:56;1.60;89.50
40077;DHT22;25777;47.824;18.982;2023-02-28T07:20:37;1.60;90.40
40077;DHT22;25777;47.824;18.982;2023-02-28T07:23:04;1.60;86.90
40077;DHT22;25777;47.824;18.982;2023-02-28T07:25:30;1.50;86.70
40077;DHT22;25777;47.824;18.982;2023-02-28T07:27:56;1.60;88.70
40077;DHT22;25777;47.824;18.982;2023-02-28T07:30:27;1.70;87.70
40077;DHT22;25777;47.824;18.982;2023-02-28T07:33:07;1.70;85.40
40077;DHT22;25777;47.824;18.982;2023-02-28T07:35:40;1.80;86.70
40077;DHT22;25777;47.824;18.982;2023-02-28T07:38:08;1.80;86.30
40077;DHT22;25777;47.824;18.982;2023-02-28T07:40:36;1.90;87.50
40077;DHT22;25777;47.824;18.982;2023-02-28T07:43:03;2.00;87.70
40077;DHT22;25777;47.824;18.982;2023-02-28T07:45:31;2.10;86.10
40077;DHT22;25777;47.824;18.982;2023-02-28T07:48:03;2.20;84.10
40077;DHT22;25777;47.824;18.982;2023-02-28T07:50:30;2.10;80.60
40077;DHT22;25777;47.824;18.982;2023-02-28T07:52:59;2.10;83.00
40077;DHT22;25777;47.824;18.982;2023-02-28T07:55:25;2.30;85.90
40077;DHT22;25777;47.824;18.982;2023-02-28T07:57:59;2.40;83.40
40077;DHT22;25777;47.824;18.982;2023-02-28T08:00:34;2.40;84.00
40077;DHT22;25777;47.824;18.982;2023-02-28T08:03:01;2.40;81.00
40077;DHT22;25777;47.824;18.982;2023-02-28T08:05:30;2.50;80.30
40077;DHT22;25777;47.824;18.982;2023-02-28T08:07:57;2.50;81.70
40077;DHT22;25777;47.824;18.982;2023-02-28T08:10:24;2.50;78.70
40077;DHT22;25777;47.824;18.982;2023-02-28T08:12:55;2.50;82.10
40077;DHT22;25777;47.824;18.982;2023-02-28T08:15:21;2.50;81.90
40077;DHT22;25777;47.824;18.982;2023-02-28T08:17:48;2.60;79.80
40077;DHT22;25777;47.824;18.982;2023-02-28T08:20:24;2.50;79.20
40077;DHT22;25777;47.824;18.982;2023-02-28T08:22:51;2.60;82.80
40077;DHT22;25777;47.824;18.982;2023-02-28T08:25:24;2.70;80.60
40077;DHT22;25777;47.824;18.982;2023-02-28T08:28:07;2.80;81.10
40077;DHT22;25777;47.824;18.982;2023-02-28T08:30:39;3.00;80.30
40077;DHT22;25777;47.824;18.982;2023-02-28T08:33:13;3.00;77.60
40077;DHT22;25777;47.824;18.982;2023-02-28T08:35:39;3.00;77.20
40077;DHT22;25777;47.824;18.982;2023-02-28T08:38:06;3.10;80.60
40077;DHT22;25777;47.824;18.982;2023-02-28T08:40:47;3.30;79.20
40077;DHT22;25777;47.824;18.982;2023-02-28T08:43:21;3.20;77.40
40077;DHT22;25777;47.824;18.982;2023-02-28T08:45:47;3.30;79.30
40077;DHT22;25777;47.824;18.982;2023-02-28T08:48:14;3.10;77.90
40077;DHT22;25777;47.824;18.982;2023-02-28T08:51:04;3.30;80.00
40077;DHT22;25777;47.824;18.982;2023-02-28T08:53:39;3.30;78.70
40077;DHT22;25777;47.824;18.982;2023-02-28T08:56:14;3.40;77.40
40077;DHT22;25777;47.824;18.982;2023-02-28T08:58:44;3.50;76.90
40077;DHT22;25777;47.824;18.982;2023-02-28T09:01:27;3.70;76.80
40077;DHT22;25777;47.824;18.982;2023-02-28T09:03:54;3.80;75.70
40077;DHT22;25777;47.824;18.982;2023-02-28T09:06:26;3.40;75.90
40077;DHT22;25777;47.824;18.982;2023-02-28T09:08:53;3.70;79.10
40077;DHT22;25777;47.824;18.982;2023-02-28T09:11:25;3.80;75.50
40077;DHT22;25777;47.824;18.982;2023-02-28T09:14:04;3.70;72.80
40077;DHT22;25777;47.824;18.982;2023-02-28T09:16:38;3.80;76.70
40077;DHT22;25777;47.824;18.982;2023-02-28T09:19:06;4.10;77.20
40077;DHT22;25777;47.824;18.982;2023-02-28T09:21:36;4.20;74.60
40077;DHT22;25777;47.824;18.982;2023-02-28T09:24:03;4.20;72.90
40077;DHT22;25777;47.824;18.982;2023-02-28T09:26:35;4.10;73.10
40077;DHT22;25777;47.824;18.982;2023-02-28T09:29:02;4.20;72.10
40077;DHT22;25777;47.824;18.982;2023-02-28T09:31:31;4.20;72.80
40077;DHT22;25777;47.824;18.982;2023-02-28T09:34:04;4.10;71.60
40077;DHT22;25777;47.824;18.982;2023-02-28T09:36:32;4.50;72.30
40077;DHT22;25777;47.824;18.982;2023-02-28T09:39:07;4.50;74.20
40077;DHT22;25777;47.824;18.982;2023-02-28T09:41:44;4.70;72.20
40077;DHT22;25777;47.824;18.982;2023-02-28T09:44:39;4.50;73.10
40077;DHT22;25777;47.824;18.982;2023-02-28T09:47:16;4.20;73.30
40077;DHT22;25777;47.824;18.982;2023-02-28T09:50:27;4.80;76.50
40077;DHT22;25777;47.824;18.982;2023-02-28T09:52:55;5.60;70.60
40077;DHT22;25777;47.824;18.982;2023-02-28T09:55:44;5.70;70.20
40077;DHT22;25777;47.824;18.982;2023-02-28T09:58:31;5.60;71.60
40077;DHT22;25777;47.824;18.982;2023-02-28T10:07:17;5.30;70.80
40077;DHT22;25777;47.824;18.982;2023-02-28T10:10:02;5.00;70.00
40077;DHT22;25777;47.824;18.982;2023-02-28T10:12:32;4.90;72.60
40077;DHT22;25777;47.824;18.982;2023-02-28T10:15:01;5.40;70.50
40077;DHT22;25777;47.824;18.982;2023-02-28T10:17:39;5.40;71.20
40077;DHT22;25777;47.824;18.982;2023-02-28T10:20:19;5.40;69.20
40077;DHT22;25777;47.824;18.982;2023-02-28T10:22:58;5.70;72.90
40077;DHT22;25777;47.824;18.982;2023-02-28T10:25:29;6.00;68.70
40077;DHT22;25777;47.824;18.982;2023-02-28T10:30:31;6.30;71.00
40077;DHT22;25777;47.824;18.982;2023-02-28T10:33:01;6.60;71.30
40077;DHT22;25777;47.824;18.982;2023-02-28T10:35:29;6.30;69.40
40077;DHT22;25777;47.824;18.982;2023-02-28T10:38:05;6.30;68.40
40077;DHT22;25777;47.824;18.982;2023-02-28T10:40:39;6.50;69.70
40077;DHT22;25777;47.824;18.982;2023-02-28T10:43:27;6.70;66.60
40077;DHT22;25777;47.824;18.982;2023-02-28T10:46:18;6.60;66.70
40077;DHT22;25777;47.824;18.982;2023-02-28T10:49:04;6.80;67.40
40077;DHT22;25777;47.824;18.982;2023-02-28T10:51:40;7.30;67.60
40077;DHT22;25777;47.824;18.982;2023-02-28T10:54:23;7.30;67.80
40077;DHT22;25777;47.824;18.982;2023-02-28T11:00:19;6.20;66.60
40077;DHT22;25777;47.824;18.982;2023-02-28T11:02:52;6.30;69.60
40077;DHT22;25777;47.824;18.982;2023-02-28T11:05:36;6.40;67.80
40077;DHT22;25777;47.824;18.982;2023-02-28T11:08:18;6.10;69.00
40077;DHT22;25777;47.824;18.982;2023-02-28T11:10:47;6.00;70.60
40077;DHT22;25777;47.824;18.982;2023-02-28T11:13:17;6.30;66.40
40077;DHT22;25777;47.824;18.982;2023-02-28T11:15:54;6.50;68.20
40077;DHT22;25777;47.824;18.982;2023-02-28T11:21:29;7.30;64.70
40077;DHT22;25777;47.824;18.982;2023-02-28T11:24:47;7.30;64.30
40077;DHT22;25777;47.824;18.982;2023-02-28T11:27:05;7.30;65.40
40077;DHT22;25777;47.824;18.982;2023-02-28T11:29:47;7.70;63.10
40077;DHT22;25777;47.824;18.982;2023-02-28T11:32:28;8.30;62.20
40077;DHT22;25777;47.824;18.982;2023-02-28T11:37:41;8.20;62.60
40077;DHT22;25777;47.824;18.982;2023-02-28T11:40:16;7.40;63.10
40077;DHT22;25777;47.824;18.982;2023-02-28T11:59:59;6.40;68.50
40077;DHT22;25777;47.824;18.982;2023-02-28T12:02:36;6.50;69.40
40077;DHT22;25777;47.824;18.982;2023-02-28T12:05:46;6.50;66.20
40077;DHT22;25777;47.824;18.982;2023-02-28T12:11:28;6.60;71.80
40077;DHT22;25777;47.824;18.982;2023-02-28T12:14:22;6.90;67.80
40077;DHT22;25777;47.824;18.982;2023-02-28T12:19:59;6.60;69.90
40077;DHT22;25777;47.824;18.982;2023-02-28T12:28:16;6.50;69.60
40077;DHT22;25777;47.824;18.982;2023-02-28T12:30:56;6.80;70.50
40077;DHT22;25777;47.824;18.982;2023-02-28T12:33:28;6.90;67.10
40077;DHT22;25777;47.824;18.982;2023-02-28T12:35:59;6.80;67.40
40077;DHT22;25777;47.824;18.982;2023-02-28T12:41:16;7.10;70.40
40077;DHT22;25777;47.824;18.982;2023-02-28T12:43:48;7.20;69.40
40077;DHT22;25777;47.824;18.982;2023-02-28T12:46:21;6.90;69.10
40077;DHT22;25777;47.824;18.982;2023-02-28T12:48:56;6.70;69.00
40077;DHT22;25777;47.824;18.982;2023-02-28T12:51:28;7.00;68.40
40077;DHT22;25777;47.824;18.982;2023-02-28T12:59:22;7.10;68.80
40077;DHT22;25777;47.824;18.982;2023-02-28T13:02:09;7.00;69.00
40077;DHT22;25777;47.824;18.982;2023-02-28T13:04:47;6.70;71.20
40077;DHT22;25777;47.824;18.982;2023-02-28T13:07:44;6.80;69.00
40077;DHT22;25777;47.824;18.982;2023-02-28T13:10:16;6.80;69.70
40077;DHT22;25777;47.824;18.982;2023-02-28T13:12:57;6.70;70.20
40077;DHT22;25777;47.824;18.982;2023-02-28T13:15:32;6.60;70.00
40077;DHT22;25777;47.824;18.982;2023-02-28T13:18:31;6.70;71.80
40077;DHT22;25777;47.824;18.982;2023-02-28T13:21:01;6.90;70.30
40077;DHT22;25777;47.824;18.982;2023-02-28T13:29:43;6.80;70.90
40077;DHT22;25777;47.824;18.982;2023-02-28T13:35:12;6.90;70.20
40077;DHT22;25777;47.824;18.982;2023-02-28T13:37:44;6.80;68.00
40077;DHT22;25777;47.824;18.982;2023-02-28T13:50:38;6.40;73.10
40077;DHT22;25777;47.824;18.982;2023-02-28T13:53:24;6.40;72.00
40077;DHT22;25777;47.824;18.982;2023-02-28T13:59:29;6.50;71.50
40077;DHT22;25777;47.824;18.982;2023-02-28T14:05:13;6.50;72.10
40077;DHT22;25777;47.824;18.982;2023-02-28T14:07:48;6.40;72.50
40077;DHT22;25777;47.824;18.982;2023-02-28T14:10:45;6.40;71.00
40077;DHT22;25777;47.824;18.982;2023-02-28T14:13:37;6.40;71.40
40077;DHT22;25777;47.824;18.982;2023-02-28T14:16:13;6.40;72.20
40077;DHT22;25777;47.824;18.982;2023-02-28T14:18:58;6.50;72.80
40077;DHT22;25777;47.824;18.982;2023-02-28T14:21:34;6.60;74.90
40077;DHT22;25777;47.824;18.982;2023-02-28T14:24:26;6.50;73.20
40077;DHT22;25777;47.824;18.982;2023-02-28T14:39:11;6.80;71.50
40077;DHT22;25777;47.824;18.982;2023-02-28T14:41:42;6.80;72.30
40077;DHT22;25777;47.824;18.982;2023-02-28T14:47:02;6.70;73.40
40077;DHT22;25777;47.824;18.982;2023-02-28T14:49:42;6.70;72.20
40077;DHT22;25777;47.824;18.982;2023-02-28T14:52:31;6.80;73.30
40077;DHT22;25777;47.824;18.982;2023-02-28T14:55:14;6.90;73.70
40077;DHT22;25777;47.824;18.982;2023-02-28T14:57:51;6.80;73.30
40077;DHT22;25777;47.824;18.982;2023-02-28T15:00:30;6.80;73.50
40077;DHT22;25777;47.824;18.982;2023-02-28T15:03:22;6.80;70.20
40077;DHT22;25777;47.824;18.982;2023-02-28T15:06:06;6.70;73.00
40077;DHT22;25777;47.824;18.982;2023-02-28T15:08:40;6.70;73.00
40077;DHT22;25777;47.824;18.982;2023-02-28T15:11:27;6.70;73.70
40077;DHT22;25777;47.824;18.982;2023-02-28T15:13:55;6.60;72.00
40077;DHT22;25777;47.824;18.982;2023-02-28T15:16:35;6.50;73.00
40077;DHT22;25777;47.824;18.982;2023-02-28T15:19:22;6.50;73.30
40077;DHT22;25777;47.824;18.982;2023-02-28T15:21:58;6.40;73.70
40077;DHT22;25777;47.824;18.982;2023-02-28T15:24:38;6.40;75.20
40077;DHT22;25777;47.824;18.982;2023-02-28T15:27:12;6.30;75.90
40077;DHT22;25777;47.824;18.982;2023-02-28T15:29:50;6.40;74.20
40077;DHT22;25777;47.824;18.982;2023-02-28T15:32:36;6.50;74.00
40077;DHT22;25777;47.824;18.982;2023-02-28T15:35:29;6.30;77.70
40077;DHT22;25777;47.824;18.982;2023-02-28T15:38:33;6.30;74.40
40077;DHT22;25777;47.824;18.982;2023-02-28T15:41:00;6.30;75.00
40077;DHT22;25777;47.824;18.982;2023-02-28T15:43:38;6.30;77.70
40077;DHT22;25777;47.824;18.982;2023-02-28T15:46:24;6.30;76.20
40077;DHT22;25777;47.824;18.982;2023-02-28T15:48:55;6.10;75.30
40077;DHT22;25777;47.824;18.982;2023-02-28T15:51:34;6.10;74.10
40077;DHT22;25777;47.824;18.982;2023-02-28T15:54:14;6.10;74.60
40077;DHT22;25777;47.824;18.982;2023-02-28T15:56:46;6.10;75.90
40077;DHT22;25777;47.824;18.982;2023-02-28T15:59:22;6.10;76.90
40077;DHT22;25777;47.824;18.982;2023-02-28T16:05:02;5.90;77.60
40077;DHT22;25777;47.824;18.982;2023-02-28T16:07:34;5.80;78.60
40077;DHT22;25777;47.824;18.982;2023-02-28T16:10:01;5.70;77.60
40077;DHT22;25777;47.824;18.982;2023-02-28T16:12:30;5.70;77.90
40077;DHT22;25777;47.824;18.982;2023-02-28T16:15:20;5.70;77.60
40077;DHT22;25777;47.824;18.982;2023-02-28T16:17:54;5.70;77.20
40077;DHT22;25777;47.824;18.982;2023-02-28T16:20:27;5.70;76.30
40077;DHT22;25777;47.824;18.982;2023-02-28T16:22:57;5.70;77.60
40077;DHT22;25777;47.824;18.982;2023-02-28T16:25:35;5.70;78.30
40077;DHT22;25777;47.824;18.982;2023-02-28T16:30:51;5.60;77.30
40077;DHT22;25777;47.824;18.982;2023-02-28T16:33:21;5.60;78.70
40077;DHT22;25777;47.824;18.982;2023-02-28T16:35:47;5.60;77.50
40077;DHT22;25777;47.824;18.982;2023-02-28T16:38:22;5.50;78.80
40077;DHT22;25777;47.824;18.982;2023-02-28T16:40:55;5.50;77.80
40077;DHT22;25777;47.824;18.982;2023-02-28T16:43:27;5.40;78.30
40077;DHT22;25777;47.824;18.982;2023-02-28T16:45:58;5.40;79.50
40077;DHT22;25777;47.824;18.982;2023-02-28T16:48:26;5.30;80.80
40077;DHT22;25777;47.824;18.982;2023-02-28T16:50:52;5.40;78.30
40077;DHT22;25777;47.824;18.982;2023-02-28T16:53:31;5.40;77.70
40077;DHT22;25777;47.824;18.982;2023-02-28T16:55:58;5.30;79.70
40077;DHT22;25777;47.824;18.982;2023-02-28T16:58:34;5.40;79.00
40077;DHT22;25777;47.824;18.982;2023-02-28T17:01:02;5.30;78.70
40077;DHT22;25777;47.824;18.982;2023-02-28T17:03:32;5.30;79.20
40077;DHT22;25777;47.824;18.982;2023-02-28T17:06:03;5.30;78.00
40077;DHT22;25777;47.824;18.982;2023-02-28T17:08:32;5.30;78.70
40077;DHT22;25777;47.824;18.982;2023-02-28T17:11:03;5.20;80.80
40077;DHT22;25777;47.824;18.982;2023-02-28T17:13:34;5.20;79.20
40077;DHT22;25777;47.824;18.982;2023-02-28T17:16:00;5.20;82.00
40077;DHT22;25777;47.824;18.982;2023-02-28T17:18:27;5.10;79.80
40077;DHT22;25777;47.824;18.982;2023-02-28T17:21:13;5.20;80.30
40077;DHT22;25777;47.824;18.982;2023-02-28T17:23:42;5.10;80.70
40077;DHT22;25777;47.824;18.982;2023-02-28T17:26:19;5.10;82.20
40077;DHT22;25777;47.824;18.982;2023-02-28T17:28:46;5.00;84.10
40077;DHT22;25777;47.824;18.982;2023-02-28T17:31:26;5.00;82.30
40077;DHT22;25777;47.824;18.982;2023-02-28T17:33:53;4.90;85.90
40077;DHT22;25777;47.824;18.982;2023-02-28T17:36:25;4.90;85.30
40077;DHT22;25777;47.824;18.982;2023-02-28T17:39:02;4.80;81.10
40077;DHT22;25777;47.824;18.982;2023-02-28T17:41:30;4.80;86.50
40077;DHT22;25777;47.824;18.982;2023-02-28T17:44:01;4.80;87.40
40077;DHT22;25777;47.824;18.982;2023-02-28T17:46:27;4.70;86.20
40077;DHT22;25777;47.824;18.982;2023-02-28T17:49:13;4.70;87.90
40077;DHT22;25777;47.824;18.982;2023-02-28T17:51:49;4.60;88.10
40077;DHT22;25777;47.824;18.982;2023-02-28T17:54:18;4.60;87.30
40077;DHT22;25777;47.824;18.982;2023-02-28T17:56:53;4.70;88.40
40077;DHT22;25777;47.824;18.982;2023-02-28T17:59:26;4.60;89.10
40077;DHT22;25777;47.824;18.982;2023-02-28T18:02:02;4.60;89.30
40077;DHT22;25777;47.824;18.982;2023-02-28T18:04:28;4.60;90.10
40077;DHT22;25777;47.824;18.982;2023-02-28T18:06:55;4.50;90.20
40077;DHT22;25777;47.824;18.982;2023-02-28T18:09:33;4.50;88.70
40077;DHT22;25777;47.824;18.982;2023-02-28T18:12:00;4.40;90.00
40077;DHT22;25777;47.824;18.982;2023-02-28T18:14:27;4.40;90.70
40077;DHT22;25777;47.824;18.982;2023-02-28T18:16:54;4.40;90.30
40077;DHT22;25777;47.824;18.982;2023-02-28T18:19:23;4.40;89.00
40077;DHT22;25777;47.824;18.982;2023-02-28T18:21:51;4.40;89.40
40077;DHT22;25777;47.824;18.982;2023-02-28T18:24:19;4.50;90.70
40077;DHT22;25777;47.824;18.982;2023-02-28T18:26:59;4.40;90.30
40077;DHT22;25777;47.824;18.982;2023-02-28T18:29:39;4.30;90.70
40077;DHT22;25777;47.824;18.982;2023-02-28T18:32:05;4.20;91.50
40077;DHT22;25777;47.824;18.982;2023-02-28T18:34:33;4.20;92.00
40077;DHT22;25777;47.824;18.982;2023-02-28T18:36:59;4.10;91.10
40077;DHT22;25777;47.824;18.982;2023-02-28T18:39:27;4.10;91.40
40077;DHT22;25777;47.824;18.982;2023-02-28T18:42:02;4.10;91.10
40077;DHT22;25777;47.824;18.982;2023-02-28T18:44:40;4.10;91.90